Polley, Wisconsin
Current Conditions -  °F | °C
As of 3:15 PM on Monday 22 Dec 2014 (Local Time) from KRCX Reporting Station
Haze Haze  
Wind Chill: 29°   Ceiling: 1200
Heat Index: 36°   Visibility: 5mi
Dew Point: 33°   Wind: 9mph
Humidity: 88%   Direction: 110°ESE
Pressure: 29.71"   Gusts: NA
Location:  45.2123°N, 90.8091°W
Report Text: KRCX 222115Z AUTO 11008KT 5SM BR BKN012 OVC029 02/01 A2971 RMK AO2 T00230005
Loading
Personal Weather Stations






























Interactive Weather Map New forecast layout! Learn more

10-Day Weather Forecast

Advertisements
Track Severe Weather on mobile